sensor_id;sensor_type;location;lat;lon;timestamp;P1;durP1;ratioP1;P2;durP2;ratioP2
58643;SDS011;44411;49.994;8.660;2023-07-09T00:01:04;6.70;;;3.92;;
58643;SDS011;44411;49.994;8.660;2023-07-09T00:03:30;9.40;;;4.07;;
58643;SDS011;44411;49.994;8.660;2023-07-09T00:05:55;10.63;;;3.90;;
58643;SDS011;44411;49.994;8.660;2023-07-09T00:10:49;9.00;;;3.92;;
58643;SDS011;44411;49.994;8.660;2023-07-09T00:13:14;5.50;;;3.73;;
58643;SDS011;44411;49.994;8.660;2023-07-09T00:15:39;9.60;;;3.90;;
58643;SDS011;44411;49.994;8.660;2023-07-09T00:18:04;7.17;;;3.80;;
58643;SDS011;44411;49.994;8.660;2023-07-09T00:20:30;7.13;;;3.47;;
58643;SDS011;44411;49.994;8.660;2023-07-09T00:22:55;7.53;;;3.43;;
58643;SDS011;44411;49.994;8.660;2023-07-09T00:25:20;6.07;;;3.33;;
58643;SDS011;44411;49.994;8.660;2023-07-09T00:27:46;7.45;;;3.40;;
58643;SDS011;44411;49.994;8.660;2023-07-09T00:30:17;6.78;;;3.60;;
58643;SDS011;44411;49.994;8.660;2023-07-09T00:32:42;7.28;;;3.70;;
58643;SDS011;44411;49.994;8.660;2023-07-09T00:35:11;5.88;;;3.42;;
58643;SDS011;44411;49.994;8.660;2023-07-09T00:37:37;7.68;;;4.15;;
58643;SDS011;44411;49.994;8.660;2023-07-09T00:40:02;6.20;;;3.70;;
58643;SDS011;44411;49.994;8.660;2023-07-09T00:42:28;7.28;;;3.30;;
58643;SDS011;44411;49.994;8.660;2023-07-09T00:44:54;9.20;;;4.10;;
58643;SDS011;44411;49.994;8.660;2023-07-09T00:47:23;7.15;;;3.47;;
58643;SDS011;44411;49.994;8.660;2023-07-09T00:49:50;8.00;;;3.72;;
58643;SDS011;44411;49.994;8.660;2023-07-09T00:52:22;7.70;;;3.83;;
58643;SDS011;44411;49.994;8.660;2023-07-09T00:54:48;6.35;;;3.70;;
58643;SDS011;44411;49.994;8.660;2023-07-09T00:57:16;7.53;;;4.05;;
58643;SDS011;44411;49.994;8.660;2023-07-09T00:59:43;10.57;;;5.15;;
58643;SDS011;44411;49.994;8.660;2023-07-09T01:02:09;6.97;;;4.03;;
58643;SDS011;44411;49.994;8.660;2023-07-09T01:04:34;6.97;;;3.63;;
58643;SDS011;44411;49.994;8.660;2023-07-09T01:07:01;8.55;;;3.83;;
58643;SDS011;44411;49.994;8.660;2023-07-09T01:09:26;8.43;;;3.80;;
58643;SDS011;44411;49.994;8.660;2023-07-09T01:11:52;6.47;;;3.75;;
58643;SDS011;44411;49.994;8.660;2023-07-09T01:14:21;7.15;;;3.83;;
58643;SDS011;44411;49.994;8.660;2023-07-09T01:16:49;6.03;;;3.75;;
58643;SDS011;44411;49.994;8.660;2023-07-09T01:19:22;7.18;;;3.70;;
58643;SDS011;44411;49.994;8.660;2023-07-09T01:21:49;7.30;;;3.97;;
58643;SDS011;44411;49.994;8.660;2023-07-09T01:24:46;7.65;;;3.83;;
58643;SDS011;44411;49.994;8.660;2023-07-09T01:27:01;6.25;;;3.42;;
58643;SDS011;44411;49.994;8.660;2023-07-09T01:29:30;8.32;;;3.97;;
58643;SDS011;44411;49.994;8.660;2023-07-09T01:31:55;6.15;;;4.05;;
58643;SDS011;44411;49.994;8.660;2023-07-09T01:34:21;8.18;;;4.93;;
58643;SDS011;44411;49.994;8.660;2023-07-09T01:36:46;7.20;;;3.85;;
58643;SDS011;44411;49.994;8.660;2023-07-09T01:39:12;7.47;;;4.07;;
58643;SDS011;44411;49.994;8.660;2023-07-09T01:41:37;8.38;;;4.00;;
58643;SDS011;44411;49.994;8.660;2023-07-09T01:44:04;6.32;;;3.42;;
58643;SDS011;44411;49.994;8.660;2023-07-09T01:46:30;6.97;;;3.42;;
58643;SDS011;44411;49.994;8.660;2023-07-09T01:48:55;6.70;;;3.50;;
58643;SDS011;44411;49.994;8.660;2023-07-09T01:51:20;9.75;;;4.38;;
58643;SDS011;44411;49.994;8.660;2023-07-09T01:53:47;7.20;;;3.65;;
58643;SDS011;44411;49.994;8.660;2023-07-09T01:56:12;5.90;;;3.73;;
58643;SDS011;44411;49.994;8.660;2023-07-09T01:58:38;8.07;;;4.37;;
58643;SDS011;44411;49.994;8.660;2023-07-09T02:01:06;10.23;;;4.63;;
58643;SDS011;44411;49.994;8.660;2023-07-09T02:03:32;7.28;;;3.78;;
58643;SDS011;44411;49.994;8.660;2023-07-09T02:05:57;7.07;;;4.15;;
58643;SDS011;44411;49.994;8.660;2023-07-09T02:08:24;9.32;;;4.10;;
58643;SDS011;44411;49.994;8.660;2023-07-09T02:10:50;6.57;;;4.13;;
58643;SDS011;44411;49.994;8.660;2023-07-09T02:13:15;7.13;;;4.53;;
58643;SDS011;44411;49.994;8.660;2023-07-09T02:15:42;6.07;;;4.60;;
58643;SDS011;44411;49.994;8.660;2023-07-09T02:18:08;7.18;;;4.40;;
58643;SDS011;44411;49.994;8.660;2023-07-09T02:20:33;8.77;;;4.50;;
58643;SDS011;44411;49.994;8.660;2023-07-09T02:22:59;5.83;;;3.97;;
58643;SDS011;44411;49.994;8.660;2023-07-09T02:25:24;7.97;;;4.30;;
58643;SDS011;44411;49.994;8.660;2023-07-09T02:27:49;8.00;;;3.97;;
58643;SDS011;44411;49.994;8.660;2023-07-09T02:30:14;6.70;;;3.67;;
58643;SDS011;44411;49.994;8.660;2023-07-09T02:32:39;7.05;;;4.00;;
58643;SDS011;44411;49.994;8.660;2023-07-09T02:35:06;7.97;;;4.18;;
58643;SDS011;44411;49.994;8.660;2023-07-09T02:37:32;8.70;;;4.60;;
58643;SDS011;44411;49.994;8.660;2023-07-09T02:39:58;7.10;;;4.10;;
58643;SDS011;44411;49.994;8.660;2023-07-09T02:42:23;6.80;;;3.97;;
58643;SDS011;44411;49.994;8.660;2023-07-09T02:44:48;7.18;;;4.63;;
58643;SDS011;44411;49.994;8.660;2023-07-09T02:47:14;7.17;;;4.03;;
58643;SDS011;44411;49.994;8.660;2023-07-09T02:49:39;6.43;;;3.97;;
58643;SDS011;44411;49.994;8.660;2023-07-09T02:52:05;6.40;;;4.32;;
58643;SDS011;44411;49.994;8.660;2023-07-09T02:54:30;7.03;;;3.72;;
58643;SDS011;44411;49.994;8.660;2023-07-09T02:56:56;6.95;;;3.67;;
58643;SDS011;44411;49.994;8.660;2023-07-09T02:59:21;9.93;;;3.92;;
58643;SDS011;44411;49.994;8.660;2023-07-09T03:01:46;5.57;;;3.45;;
58643;SDS011;44411;49.994;8.660;2023-07-09T03:04:12;7.50;;;3.75;;
58643;SDS011;44411;49.994;8.660;2023-07-09T03:06:38;6.57;;;4.05;;
58643;SDS011;44411;49.994;8.660;2023-07-09T03:09:03;10.63;;;5.00;;
58643;SDS011;44411;49.994;8.660;2023-07-09T03:11:30;6.82;;;4.20;;
58643;SDS011;44411;49.994;8.660;2023-07-09T03:13:56;6.80;;;4.20;;
58643;SDS011;44411;49.994;8.660;2023-07-09T03:16:21;8.93;;;4.38;;
58643;SDS011;44411;49.994;8.660;2023-07-09T03:18:46;6.97;;;4.17;;
58643;SDS011;44411;49.994;8.660;2023-07-09T03:21:11;6.90;;;4.00;;
58643;SDS011;44411;49.994;8.660;2023-07-09T03:23:37;9.07;;;4.37;;
58643;SDS011;44411;49.994;8.660;2023-07-09T03:26:02;6.40;;;3.83;;
58643;SDS011;44411;49.994;8.660;2023-07-09T03:28:29;10.25;;;3.97;;
58643;SDS011;44411;49.994;8.660;2023-07-09T03:30:55;4.82;;;2.95;;
58643;SDS011;44411;49.994;8.660;2023-07-09T03:33:21;7.53;;;4.88;;
58643;SDS011;44411;49.994;8.660;2023-07-09T03:35:46;7.50;;;3.72;;
58643;SDS011;44411;49.994;8.660;2023-07-09T03:38:12;6.93;;;3.70;;
58643;SDS011;44411;49.994;8.660;2023-07-09T03:40:37;6.80;;;3.70;;
58643;SDS011;44411;49.994;8.660;2023-07-09T03:43:06;6.78;;;3.70;;
58643;SDS011;44411;49.994;8.660;2023-07-09T03:45:32;9.07;;;4.38;;
58643;SDS011;44411;49.994;8.660;2023-07-09T03:47:57;6.45;;;3.85;;
58643;SDS011;44411;49.994;8.660;2023-07-09T03:50:22;8.60;;;3.97;;
58643;SDS011;44411;49.994;8.660;2023-07-09T03:52:47;7.23;;;3.83;;
58643;SDS011;44411;49.994;8.660;2023-07-09T03:55:13;6.23;;;3.67;;
58643;SDS011;44411;49.994;8.660;2023-07-09T03:57:39;8.85;;;4.45;;
58643;SDS011;44411;49.994;8.660;2023-07-09T04:00:04;7.13;;;4.45;;
58643;SDS011;44411;49.994;8.660;2023-07-09T04:02:30;8.13;;;4.15;;
58643;SDS011;44411;49.994;8.660;2023-07-09T04:04:56;10.40;;;4.28;;
58643;SDS011;44411;49.994;8.660;2023-07-09T04:07:21;6.67;;;4.13;;
58643;SDS011;44411;49.994;8.660;2023-07-09T04:09:46;7.53;;;3.90;;
58643;SDS011;44411;49.994;8.660;2023-07-09T04:12:11;8.27;;;4.23;;
58643;SDS011;44411;49.994;8.660;2023-07-09T04:14:37;6.63;;;4.03;;
58643;SDS011;44411;49.994;8.660;2023-07-09T04:17:02;7.93;;;3.83;;
58643;SDS011;44411;49.994;8.660;2023-07-09T04:19:27;5.65;;;3.75;;
58643;SDS011;44411;49.994;8.660;2023-07-09T04:21:53;7.20;;;3.97;;
58643;SDS011;44411;49.994;8.660;2023-07-09T04:24:19;8.05;;;4.10;;
58643;SDS011;44411;49.994;8.660;2023-07-09T04:26:44;6.57;;;4.20;;
58643;SDS011;44411;49.994;8.660;2023-07-09T04:29:11;6.72;;;3.67;;
58643;SDS011;44411;49.994;8.660;2023-07-09T04:31:36;7.28;;;4.03;;
58643;SDS011;44411;49.994;8.660;2023-07-09T04:34:02;8.45;;;4.03;;
58643;SDS011;44411;49.994;8.660;2023-07-09T04:36:28;7.13;;;3.47;;
58643;SDS011;44411;49.994;8.660;2023-07-09T04:38:53;7.43;;;4.20;;
58643;SDS011;44411;49.994;8.660;2023-07-09T04:41:18;7.13;;;4.17;;
58643;SDS011;44411;49.994;8.660;2023-07-09T04:43:43;6.20;;;3.63;;
58643;SDS011;44411;49.994;8.660;2023-07-09T04:46:09;7.03;;;3.87;;
58643;SDS011;44411;49.994;8.660;2023-07-09T04:48:34;7.30;;;4.10;;
58643;SDS011;44411;49.994;8.660;2023-07-09T04:50:59;8.53;;;3.73;;
58643;SDS011;44411;49.994;8.660;2023-07-09T04:53:24;6.85;;;4.03;;
58643;SDS011;44411;49.994;8.660;2023-07-09T04:55:50;6.15;;;3.65;;
58643;SDS011;44411;49.994;8.660;2023-07-09T04:58:15;7.97;;;4.13;;
58643;SDS011;44411;49.994;8.660;2023-07-09T05:00:41;6.72;;;3.95;;
58643;SDS011;44411;49.994;8.660;2023-07-09T05:03:06;5.40;;;3.13;;
58643;SDS011;44411;49.994;8.660;2023-07-09T05:05:32;6.40;;;3.40;;
58643;SDS011;44411;49.994;8.660;2023-07-09T05:07:57;6.50;;;3.72;;
58643;SDS011;44411;49.994;8.660;2023-07-09T05:10:22;5.67;;;3.63;;
58643;SDS011;44411;49.994;8.660;2023-07-09T05:12:51;7.45;;;4.13;;
58643;SDS011;44411;49.994;8.660;2023-07-09T05:15:17;10.13;;;4.35;;
58643;SDS011;44411;49.994;8.660;2023-07-09T05:17:43;7.38;;;4.25;;
58643;SDS011;44411;49.994;8.660;2023-07-09T05:20:09;6.55;;;4.28;;
58643;SDS011;44411;49.994;8.660;2023-07-09T05:22:34;6.43;;;4.13;;
58643;SDS011;44411;49.994;8.660;2023-07-09T05:24:59;7.30;;;4.13;;
58643;SDS011;44411;49.994;8.660;2023-07-09T05:27:24;7.65;;;4.18;;
58643;SDS011;44411;49.994;8.660;2023-07-09T05:29:50;9.40;;;4.30;;
58643;SDS011;44411;49.994;8.660;2023-07-09T05:32:15;6.88;;;4.22;;
58643;SDS011;44411;49.994;8.660;2023-07-09T05:34:40;8.83;;;5.23;;
58643;SDS011;44411;49.994;8.660;2023-07-09T05:37:06;7.88;;;4.35;;
58643;SDS011;44411;49.994;8.660;2023-07-09T05:39:31;7.80;;;4.57;;
58643;SDS011;44411;49.994;8.660;2023-07-09T05:41:56;7.25;;;4.57;;
58643;SDS011;44411;49.994;8.660;2023-07-09T05:44:22;7.87;;;5.10;;
58643;SDS011;44411;49.994;8.660;2023-07-09T05:46:47;6.38;;;4.07;;
58643;SDS011;44411;49.994;8.660;2023-07-09T05:49:12;7.17;;;4.43;;
58643;SDS011;44411;49.994;8.660;2023-07-09T05:51:37;6.07;;;4.07;;
58643;SDS011;44411;49.994;8.660;2023-07-09T05:54:02;6.83;;;4.30;;
58643;SDS011;44411;49.994;8.660;2023-07-09T05:56:28;6.87;;;4.20;;
58643;SDS011;44411;49.994;8.660;2023-07-09T05:58:53;8.25;;;4.20;;
58643;SDS011;44411;49.994;8.660;2023-07-09T06:01:19;6.43;;;4.20;;
58643;SDS011;44411;49.994;8.660;2023-07-09T06:03:45;6.78;;;4.63;;
58643;SDS011;44411;49.994;8.660;2023-07-09T06:06:11;7.35;;;4.65;;
58643;SDS011;44411;49.994;8.660;2023-07-09T06:08:37;5.80;;;3.80;;
58643;SDS011;44411;49.994;8.660;2023-07-09T06:11:03;7.72;;;4.30;;
58643;SDS011;44411;49.994;8.660;2023-07-09T06:13:29;9.02;;;5.28;;
58643;SDS011;44411;49.994;8.660;2023-07-09T06:15:56;6.95;;;4.63;;
58643;SDS011;44411;49.994;8.660;2023-07-09T06:18:22;7.40;;;3.95;;
58643;SDS011;44411;49.994;8.660;2023-07-09T06:20:51;7.18;;;4.07;;
58643;SDS011;44411;49.994;8.660;2023-07-09T06:23:17;7.28;;;4.00;;
58643;SDS011;44411;49.994;8.660;2023-07-09T06:25:43;10.15;;;4.70;;
58643;SDS011;44411;49.994;8.660;2023-07-09T06:28:11;7.10;;;3.87;;
58643;SDS011;44411;49.994;8.660;2023-07-09T06:30:36;7.70;;;4.43;;
58643;SDS011;44411;49.994;8.660;2023-07-09T06:33:02;6.77;;;3.97;;
58643;SDS011;44411;49.994;8.660;2023-07-09T06:35:27;8.23;;;3.87;;
58643;SDS011;44411;49.994;8.660;2023-07-09T06:37:52;7.37;;;4.30;;
58643;SDS011;44411;49.994;8.660;2023-07-09T06:40:17;5.93;;;4.13;;
58643;SDS011;44411;49.994;8.660;2023-07-09T06:42:43;7.90;;;4.32;;
58643;SDS011;44411;49.994;8.660;2023-07-09T06:45:08;7.80;;;3.93;;
58643;SDS011;44411;49.994;8.660;2023-07-09T06:47:33;8.55;;;4.40;;
58643;SDS011;44411;49.994;8.660;2023-07-09T06:49:59;7.07;;;3.40;;
58643;SDS011;44411;49.994;8.660;2023-07-09T06:52:24;7.17;;;3.93;;
58643;SDS011;44411;49.994;8.660;2023-07-09T06:54:49;5.87;;;3.40;;
58643;SDS011;44411;49.994;8.660;2023-07-09T06:57:14;7.30;;;4.03;;
58643;SDS011;44411;49.994;8.660;2023-07-09T06:59:39;7.38;;;3.92;;
58643;SDS011;44411;49.994;8.660;2023-07-09T07:02:05;7.57;;;4.03;;
58643;SDS011;44411;49.994;8.660;2023-07-09T07:04:30;7.97;;;4.30;;
58643;SDS011;44411;49.994;8.660;2023-07-09T07:06:55;8.27;;;4.90;;
58643;SDS011;44411;49.994;8.660;2023-07-09T07:09:22;6.80;;;4.03;;
58643;SDS011;44411;49.994;8.660;2023-07-09T07:11:47;11.63;;;4.07;;
58643;SDS011;44411;49.994;8.660;2023-07-09T07:14:12;7.40;;;3.73;;
58643;SDS011;44411;49.994;8.660;2023-07-09T07:16:37;10.80;;;3.80;;
58643;SDS011;44411;49.994;8.660;2023-07-09T07:19:02;7.73;;;3.53;;
58643;SDS011;44411;49.994;8.660;2023-07-09T07:21:27;7.03;;;3.67;;
58643;SDS011;44411;49.994;8.660;2023-07-09T07:23:53;7.50;;;4.20;;
58643;SDS011;44411;49.994;8.660;2023-07-09T07:26:18;9.40;;;4.22;;
58643;SDS011;44411;49.994;8.660;2023-07-09T07:28:43;6.73;;;3.80;;
58643;SDS011;44411;49.994;8.660;2023-07-09T07:31:09;7.17;;;4.17;;
58643;SDS011;44411;49.994;8.660;2023-07-09T07:33:34;7.75;;;3.78;;
58643;SDS011;44411;49.994;8.660;2023-07-09T07:36:00;9.02;;;4.07;;
58643;SDS011;44411;49.994;8.660;2023-07-09T07:38:25;7.22;;;4.00;;
58643;SDS011;44411;49.994;8.660;2023-07-09T07:40:50;5.93;;;4.00;;
58643;SDS011;44411;49.994;8.660;2023-07-09T07:43:16;9.37;;;4.00;;
58643;SDS011;44411;49.994;8.660;2023-07-09T07:45:42;6.40;;;4.17;;
58643;SDS011;44411;49.994;8.660;2023-07-09T07:48:07;6.60;;;3.78;;
58643;SDS011;44411;49.994;8.660;2023-07-09T07:50:32;9.85;;;4.57;;
58643;SDS011;44411;49.994;8.660;2023-07-09T07:52:57;6.27;;;4.27;;
58643;SDS011;44411;49.994;8.660;2023-07-09T07:55:23;6.87;;;4.03;;
58643;SDS011;44411;49.994;8.660;2023-07-09T07:57:48;8.60;;;4.30;;
58643;SDS011;44411;49.994;8.660;2023-07-09T08:00:13;7.30;;;4.00;;
58643;SDS011;44411;49.994;8.660;2023-07-09T08:02:39;6.78;;;4.28;;
58643;SDS011;44411;49.994;8.660;2023-07-09T08:05:04;8.73;;;4.80;;
58643;SDS011;44411;49.994;8.660;2023-07-09T08:07:30;6.07;;;3.72;;
58643;SDS011;44411;49.994;8.660;2023-07-09T08:09:55;7.47;;;4.30;;
58643;SDS011;44411;49.994;8.660;2023-07-09T08:12:20;6.17;;;3.83;;
58643;SDS011;44411;49.994;8.660;2023-07-09T08:14:46;6.60;;;3.87;;
58643;SDS011;44411;49.994;8.660;2023-07-09T08:17:11;6.15;;;3.78;;
58643;SDS011;44411;49.994;8.660;2023-07-09T08:19:44;6.53;;;4.00;;
58643;SDS011;44411;49.994;8.660;2023-07-09T08:22:09;8.77;;;4.18;;
58643;SDS011;44411;49.994;8.660;2023-07-09T08:24:34;6.80;;;4.10;;
58643;SDS011;44411;49.994;8.660;2023-07-09T08:26:59;7.83;;;4.33;;
58643;SDS011;44411;49.994;8.660;2023-07-09T08:29:25;8.40;;;4.20;;
58643;SDS011;44411;49.994;8.660;2023-07-09T08:31:50;7.97;;;4.50;;
58643;SDS011;44411;49.994;8.660;2023-07-09T08:34:15;8.70;;;4.53;;
58643;SDS011;44411;49.994;8.660;2023-07-09T08:36:41;8.00;;;4.77;;
58643;SDS011;44411;49.994;8.660;2023-07-09T08:39:06;6.93;;;4.20;;
58643;SDS011;44411;49.994;8.660;2023-07-09T08:41:47;7.17;;;4.23;;
58643;SDS011;44411;49.994;8.660;2023-07-09T08:49:26;6.77;;;4.00;;
58643;SDS011;44411;49.994;8.660;2023-07-09T08:51:55;8.60;;;4.05;;
58643;SDS011;44411;49.994;8.660;2023-07-09T08:56:50;7.20;;;4.25;;
58643;SDS011;44411;49.994;8.660;2023-07-09T08:59:15;5.68;;;3.50;;
58643;SDS011;44411;49.994;8.660;2023-07-09T09:01:54;7.30;;;4.80;;
58643;SDS011;44411;49.994;8.660;2023-07-09T09:06:57;9.48;;;3.95;;
58643;SDS011;44411;49.994;8.660;2023-07-09T09:09:28;6.25;;;3.75;;
58643;SDS011;44411;49.994;8.660;2023-07-09T09:16:55;12.17;;;4.10;;
58643;SDS011;44411;49.994;8.660;2023-07-09T09:21:54;7.03;;;4.25;;
58643;SDS011;44411;49.994;8.660;2023-07-09T09:24:31;8.43;;;4.38;;
58643;SDS011;44411;49.994;8.660;2023-07-09T09:26:58;8.05;;;3.90;;
58643;SDS011;44411;49.994;8.660;2023-07-09T09:29:24;6.50;;;3.60;;
58643;SDS011;44411;49.994;8.660;2023-07-09T09:31:50;7.63;;;3.85;;
58643;SDS011;44411;49.994;8.660;2023-07-09T09:34:20;6.47;;;3.75;;
58643;SDS011;44411;49.994;8.660;2023-07-09T09:36:46;8.60;;;3.35;;
58643;SDS011;44411;49.994;8.660;2023-07-09T09:39:11;5.40;;;3.42;;
58643;SDS011;44411;49.994;8.660;2023-07-09T09:41:37;6.13;;;4.00;;
58643;SDS011;44411;49.994;8.660;2023-07-09T09:44:02;6.03;;;4.13;;
58643;SDS011;44411;49.994;8.660;2023-07-09T09:46:30;5.82;;;3.63;;
58643;SDS011;44411;49.994;8.660;2023-07-09T09:48:58;8.10;;;3.80;;
58643;SDS011;44411;49.994;8.660;2023-07-09T09:51:24;9.32;;;4.03;;
58643;SDS011;44411;49.994;8.660;2023-07-09T09:53:59;7.97;;;4.07;;
58643;SDS011;44411;49.994;8.660;2023-07-09T09:56:30;5.93;;;3.28;;
58643;SDS011;44411;49.994;8.660;2023-07-09T09:58:56;5.53;;;3.58;;
58643;SDS011;44411;49.994;8.660;2023-07-09T10:01:25;7.43;;;3.70;;
58643;SDS011;44411;49.994;8.660;2023-07-09T10:03:54;7.32;;;3.53;;
58643;SDS011;44411;49.994;8.660;2023-07-09T10:06:21;7.97;;;4.07;;
58643;SDS011;44411;49.994;8.660;2023-07-09T10:08:54;6.28;;;3.58;;
58643;SDS011;44411;49.994;8.660;2023-07-09T10:13:54;6.50;;;3.55;;
58643;SDS011;44411;49.994;8.660;2023-07-09T10:16:32;7.68;;;4.20;;
58643;SDS011;44411;49.994;8.660;2023-07-09T10:19:09;5.65;;;3.33;;
58643;SDS011;44411;49.994;8.660;2023-07-09T10:21:40;5.93;;;3.40;;
58643;SDS011;44411;49.994;8.660;2023-07-09T10:26:53;7.13;;;3.42;;
58643;SDS011;44411;49.994;8.660;2023-07-09T10:37:34;6.57;;;3.40;;
58643;SDS011;44411;49.994;8.660;2023-07-09T10:40:04;5.25;;;3.60;;
58643;SDS011;44411;49.994;8.660;2023-07-09T10:42:35;6.68;;;3.47;;
58643;SDS011;44411;49.994;8.660;2023-07-09T10:45:02;5.43;;;3.38;;
58643;SDS011;44411;49.994;8.660;2023-07-09T10:47:32;5.55;;;3.60;;
58643;SDS011;44411;49.994;8.660;2023-07-09T10:49:58;6.60;;;3.25;;
58643;SDS011;44411;49.994;8.660;2023-07-09T10:52:27;6.65;;;4.00;;
58643;SDS011;44411;49.994;8.660;2023-07-09T10:57:25;7.40;;;3.65;;
58643;SDS011;44411;49.994;8.660;2023-07-09T10:59:53;6.93;;;3.58;;
58643;SDS011;44411;49.994;8.660;2023-07-09T11:02:21;6.15;;;3.15;;
58643;SDS011;44411;49.994;8.660;2023-07-09T11:04:51;6.43;;;3.45;;
58643;SDS011;44411;49.994;8.660;2023-07-09T11:07:18;5.53;;;2.97;;
58643;SDS011;44411;49.994;8.660;2023-07-09T11:14:43;6.38;;;3.70;;
58643;SDS011;44411;49.994;8.660;2023-07-09T11:17:13;5.07;;;2.67;;
58643;SDS011;44411;49.994;8.660;2023-07-09T11:19:42;7.70;;;3.63;;
58643;SDS011;44411;49.994;8.660;2023-07-09T11:22:16;6.00;;;3.30;;
58643;SDS011;44411;49.994;8.660;2023-07-09T11:27:16;5.45;;;2.80;;
58643;SDS011;44411;49.994;8.660;2023-07-09T11:29:48;5.85;;;3.67;;
58643;SDS011;44411;49.994;8.660;2023-07-09T11:32:18;5.80;;;3.17;;
58643;SDS011;44411;49.994;8.660;2023-07-09T11:34:46;6.72;;;3.78;;
58643;SDS011;44411;49.994;8.660;2023-07-09T11:37:12;6.63;;;3.95;;
58643;SDS011;44411;49.994;8.660;2023-07-09T11:42:03;5.65;;;3.35;;
58643;SDS011;44411;49.994;8.660;2023-07-09T11:44:30;7.60;;;3.03;;
58643;SDS011;44411;49.994;8.660;2023-07-09T11:49:25;5.93;;;2.90;;
58643;SDS011;44411;49.994;8.660;2023-07-09T11:51:55;5.20;;;2.90;;
58643;SDS011;44411;49.994;8.660;2023-07-09T11:54:22;7.13;;;2.70;;
58643;SDS011;44411;49.994;8.660;2023-07-09T11:56:55;6.53;;;2.80;;
58643;SDS011;44411;49.994;8.660;2023-07-09T11:59:20;6.90;;;3.47;;
58643;SDS011;44411;49.994;8.660;2023-07-09T12:01:46;7.77;;;2.80;;
58643;SDS011;44411;49.994;8.660;2023-07-09T12:04:14;5.28;;;2.85;;
58643;SDS011;44411;49.994;8.660;2023-07-09T12:06:40;5.25;;;2.40;;
58643;SDS011;44411;49.994;8.660;2023-07-09T12:09:05;5.10;;;2.73;;
58643;SDS011;44411;49.994;8.660;2023-07-09T12:11:33;4.47;;;2.40;;
58643;SDS011;44411;49.994;8.660;2023-07-09T12:14:05;5.18;;;2.67;;
58643;SDS011;44411;49.994;8.660;2023-07-09T12:16:33;4.93;;;2.53;;
58643;SDS011;44411;49.994;8.660;2023-07-09T12:18:58;6.47;;;2.75;;
58643;SDS011;44411;49.994;8.660;2023-07-09T12:21:24;4.70;;;2.57;;
58643;SDS011;44411;49.994;8.660;2023-07-09T12:23:50;7.03;;;2.95;;
58643;SDS011;44411;49.994;8.660;2023-07-09T12:26:16;6.07;;;3.03;;
58643;SDS011;44411;49.994;8.660;2023-07-09T12:28:42;6.43;;;2.75;;
58643;SDS011;44411;49.994;8.660;2023-07-09T12:31:14;5.60;;;2.45;;
58643;SDS011;44411;49.994;8.660;2023-07-09T12:33:49;5.65;;;2.83;;
58643;SDS011;44411;49.994;8.660;2023-07-09T12:36:16;5.50;;;2.55;;
58643;SDS011;44411;49.994;8.660;2023-07-09T12:38:43;6.15;;;2.95;;
58643;SDS011;44411;49.994;8.660;2023-07-09T12:41:15;7.22;;;3.05;;
58643;SDS011;44411;49.994;8.660;2023-07-09T12:43:42;7.68;;;2.78;;
58643;SDS011;44411;49.994;8.660;2023-07-09T12:46:07;5.13;;;2.70;;
58643;SDS011;44411;49.994;8.660;2023-07-09T12:48:33;6.00;;;2.50;;
58643;SDS011;44411;49.994;8.660;2023-07-09T12:50:59;5.20;;;3.10;;
58643;SDS011;44411;49.994;8.660;2023-07-09T12:53:25;5.30;;;2.53;;
58643;SDS011;44411;49.994;8.660;2023-07-09T12:55:58;4.90;;;3.00;;
58643;SDS011;44411;49.994;8.660;2023-07-09T12:58:24;4.95;;;2.72;;
58643;SDS011;44411;49.994;8.660;2023-07-09T13:00:51;5.38;;;2.60;;
58643;SDS011;44411;49.994;8.660;2023-07-09T13:03:21;6.95;;;3.05;;
58643;SDS011;44411;49.994;8.660;2023-07-09T13:06:04;6.00;;;2.80;;
58643;SDS011;44411;49.994;8.660;2023-07-09T13:08:30;6.03;;;3.03;;
58643;SDS011;44411;49.994;8.660;2023-07-09T13:10:56;5.55;;;3.03;;
58643;SDS011;44411;49.994;8.660;2023-07-09T13:13:22;7.70;;;3.00;;
58643;SDS011;44411;49.994;8.660;2023-07-09T13:15:49;6.65;;;3.10;;
58643;SDS011;44411;49.994;8.660;2023-07-09T13:18:14;6.25;;;2.50;;
58643;SDS011;44411;49.994;8.660;2023-07-09T13:20:44;4.45;;;2.90;;
58643;SDS011;44411;49.994;8.660;2023-07-09T13:23:19;5.30;;;2.90;;
58643;SDS011;44411;49.994;8.660;2023-07-09T13:25:45;5.95;;;3.00;;
58643;SDS011;44411;49.994;8.660;2023-07-09T13:28:14;7.25;;;3.42;;
58643;SDS011;44411;49.994;8.660;2023-07-09T13:30:39;5.15;;;3.33;;
58643;SDS011;44411;49.994;8.660;2023-07-09T13:33:07;5.97;;;3.40;;
58643;SDS011;44411;49.994;8.660;2023-07-09T13:37:58;5.90;;;3.08;;
58643;SDS011;44411;49.994;8.660;2023-07-09T13:40:23;5.20;;;2.83;;
58643;SDS011;44411;49.994;8.660;2023-07-09T13:42:48;5.97;;;2.97;;
58643;SDS011;44411;49.994;8.660;2023-07-09T13:45:18;7.27;;;3.43;;
58643;SDS011;44411;49.994;8.660;2023-07-09T13:47:44;4.90;;;3.25;;
58643;SDS011;44411;49.994;8.660;2023-07-09T13:50:09;6.30;;;3.00;;
58643;SDS011;44411;49.994;8.660;2023-07-09T13:52:34;5.33;;;3.00;;
58643;SDS011;44411;49.994;8.660;2023-07-09T13:54:59;5.20;;;2.97;;
58643;SDS011;44411;49.994;8.660;2023-07-09T13:57:25;6.37;;;3.10;;
58643;SDS011;44411;49.994;8.660;2023-07-09T13:59:50;8.07;;;3.30;;
58643;SDS011;44411;49.994;8.660;2023-07-09T14:04:44;5.18;;;3.20;;
58643;SDS011;44411;49.994;8.660;2023-07-09T14:07:20;4.80;;;2.97;;
58643;SDS011;44411;49.994;8.660;2023-07-09T14:09:47;5.30;;;3.38;;
58643;SDS011;44411;49.994;8.660;2023-07-09T14:12:12;5.40;;;3.03;;
58643;SDS011;44411;49.994;8.660;2023-07-09T14:14:37;6.20;;;3.40;;
58643;SDS011;44411;49.994;8.660;2023-07-09T14:17:03;5.50;;;3.07;;
58643;SDS011;44411;49.994;8.660;2023-07-09T14:19:28;5.20;;;2.80;;
58643;SDS011;44411;49.994;8.660;2023-07-09T14:21:54;6.10;;;3.30;;
58643;SDS011;44411;49.994;8.660;2023-07-09T14:24:20;6.43;;;3.63;;
58643;SDS011;44411;49.994;8.660;2023-07-09T14:26:50;7.45;;;3.28;;
58643;SDS011;44411;49.994;8.660;2023-07-09T14:29:18;5.80;;;3.30;;
58643;SDS011;44411;49.994;8.660;2023-07-09T14:31:44;8.45;;;3.55;;
58643;SDS011;44411;49.994;8.660;2023-07-09T14:34:23;4.95;;;2.92;;
58643;SDS011;44411;49.994;8.660;2023-07-09T14:36:49;7.10;;;3.10;;
58643;SDS011;44411;49.994;8.660;2023-07-09T14:39:14;6.13;;;3.05;;
58643;SDS011;44411;49.994;8.660;2023-07-09T14:41:39;6.73;;;3.70;;
58643;SDS011;44411;49.994;8.660;2023-07-09T14:44:12;7.28;;;3.60;;
58643;SDS011;44411;49.994;8.660;2023-07-09T14:46:40;5.10;;;2.72;;
58643;SDS011;44411;49.994;8.660;2023-07-09T14:49:06;5.50;;;2.80;;
58643;SDS011;44411;49.994;8.660;2023-07-09T14:51:32;4.53;;;2.80;;
58643;SDS011;44411;49.994;8.660;2023-07-09T14:53:57;6.57;;;3.47;;
58643;SDS011;44411;49.994;8.660;2023-07-09T14:56:22;5.13;;;2.77;;
58643;SDS011;44411;49.994;8.660;2023-07-09T14:58:48;6.18;;;3.10;;
58643;SDS011;44411;49.994;8.660;2023-07-09T15:01:14;7.37;;;2.67;;
58643;SDS011;44411;49.994;8.660;2023-07-09T15:03:39;5.85;;;3.15;;
58643;SDS011;44411;49.994;8.660;2023-07-09T15:06:05;6.25;;;3.17;;
58643;SDS011;44411;49.994;8.660;2023-07-09T15:08:30;5.90;;;3.00;;
58643;SDS011;44411;49.994;8.660;2023-07-09T15:10:55;5.70;;;2.77;;
58643;SDS011;44411;49.994;8.660;2023-07-09T15:15:49;5.45;;;3.35;;
58643;SDS011;44411;49.994;8.660;2023-07-09T15:18:14;5.73;;;3.10;;
58643;SDS011;44411;49.994;8.660;2023-07-09T15:20:42;4.95;;;2.72;;
58643;SDS011;44411;49.994;8.660;2023-07-09T15:23:09;5.65;;;2.85;;
58643;SDS011;44411;49.994;8.660;2023-07-09T15:25:35;5.38;;;3.20;;
58643;SDS011;44411;49.994;8.660;2023-07-09T15:28:00;7.67;;;2.93;;
58643;SDS011;44411;49.994;8.660;2023-07-09T15:30:26;4.97;;;2.77;;
58643;SDS011;44411;49.994;8.660;2023-07-09T15:32:54;5.82;;;2.95;;
58643;SDS011;44411;49.994;8.660;2023-07-09T15:35:20;4.82;;;2.92;;
58643;SDS011;44411;49.994;8.660;2023-07-09T15:37:45;5.78;;;3.25;;
58643;SDS011;44411;49.994;8.660;2023-07-09T15:42:38;6.50;;;2.83;;